Time;durP1;ratioP1;P1;durP2;ratioP2;P2;SDS_P1;SDS_P2;PMS_P1;PMS_P2;Temp;Humidity;BMP_temperature;BMP_pressure;BME280_temperature;BME280_humidity;BME280_pressure;Samples;Min_cycle;Max_cycle;Signal;HPM_P1;HPM_P2
2021/10/28 00:13:42;;;;;;;1.33;1.30;;;15.20;99.90;;;;;;4951543;28;20208;-76
2021/10/28 00:16:18;;;;;;;1.30;1.20;;;15.10;99.90;;;;;;4952285;28;20226;-76
2021/10/28 00:18:48;;;;;;;3.00;1.40;;;15.10;99.90;;;;;;4952873;28;20208;-75
2021/10/28 00:21:15;;;;;;;1.10;1.10;;;15.10;99.90;;;;;;4954908;28;20255;-76
2021/10/28 00:23:45;;;;;;;1.83;1.23;;;15.10;99.90;;;;;;4965983;28;20912;-75
2021/10/28 00:26:13;;;;;;;1.20;1.20;;;15.20;99.90;;;;;;4949461;28;20573;-76
2021/10/28 00:28:41;;;;;;;1.47;1.37;;;15.20;99.90;;;;;;4952166;28;20244;-76
2021/10/28 00:31:10;;;;;;;1.07;1.07;;;15.20;99.90;;;;;;4952804;28;20221;-76
2021/10/28 00:33:38;;;;;;;1.50;1.37;;;15.20;99.90;;;;;;4965793;28;20687;-76
2021/10/28 00:36:06;;;;;;;1.27;1.20;;;15.20;99.90;;;;;;4968751;28;20380;-75
2021/10/28 00:38:34;;;;;;;1.20;1.20;;;15.10;99.90;;;;;;4969416;28;20224;-75
2021/10/28 00:41:03;;;;;;;1.30;1.30;;;15.10;99.90;;;;;;5035574;28;20229;-74
2021/10/28 00:43:31;;;;;;;1.03;1.03;;;15.10;99.90;;;;;;5026466;28;20202;-75
2021/10/28 00:46:00;;;;;;;1.13;1.10;;;15.10;99.90;;;;;;5023373;28;20686;-76
2021/10/28 00:48:31;;;;;;;0.93;0.93;;;15.10;99.90;;;;;;5066255;28;20643;-76
2021/10/28 00:50:58;;;;;;;1.10;1.07;;;15.20;99.90;;;;;;5078452;28;20205;-76
2021/10/28 00:53:25;;;;;;;1.10;1.00;;;15.10;99.90;;;;;;5112255;27;20200;-76
2021/10/28 00:55:54;;;;;;;0.90;0.90;;;15.20;99.90;;;;;;5084421;28;20291;-76
2021/10/28 00:58:22;;;;;;;0.70;0.70;;;15.20;99.90;;;;;;5112465;27;20208;-76
2021/10/28 01:00:51;;;;;;;0.80;0.80;;;15.20;99.90;;;;;;5077083;28;20248;-77
2021/10/28 01:03:18;;;;;;;1.40;1.30;;;15.20;99.90;;;;;;5084811;28;20251;-76
2021/10/28 01:05:48;;;;;;;0.93;0.93;;;15.20;99.90;;;;;;5069978;28;20226;-76
2021/10/28 01:08:16;;;;;;;1.60;1.30;;;15.20;99.90;;;;;;5076047;28;20555;-76
2021/10/28 01:10:46;;;;;;;1.10;1.10;;;15.20;99.90;;;;;;5080791;28;20205;-76
2021/10/28 01:13:15;;;;;;;1.10;1.10;;;15.30;99.90;;;;;;5074825;28;20583;-76
2021/10/28 01:15:42;;;;;;;1.10;1.10;;;15.30;99.90;;;;;;5079384;28;20282;-76
2021/10/28 01:18:10;;;;;;;1.30;1.20;;;15.30;99.90;;;;;;5075945;28;20614;-76
2021/10/28 01:20:41;;;;;;;1.43;0.90;;;15.30;99.90;;;;;;5079530;28;20205;-75
2021/10/28 01:23:10;;;;;;;1.03;1.03;;;15.30;99.90;;;;;;5080337;28;20751;-75
2021/10/28 01:25:38;;;;;;;0.90;0.90;;;15.30;99.90;;;;;;5083619;28;20319;-75
2021/10/28 01:28:06;;;;;;;1.30;1.00;;;15.30;99.90;;;;;;5086479;28;20200;-76
2021/10/28 01:30:33;;;;;;;0.90;0.90;;;15.30;99.90;;;;;;5082101;28;20207;-75
2021/10/28 01:33:00;;;;;;;0.70;0.70;;;15.30;99.90;;;;;;5083373;28;20275;-75
2021/10/28 01:35:28;;;;;;;0.80;0.80;;;15.30;99.90;;;;;;5080979;28;20197;-77
2021/10/28 01:37:56;;;;;;;0.90;0.70;;;15.30;99.90;;;;;;5080816;28;20203;-76
2021/10/28 01:40:25;;;;;;;0.90;0.90;;;15.30;99.90;;;;;;5080111;28;20260;-76
2021/10/28 01:42:52;;;;;;;0.80;0.80;;;15.40;99.90;;;;;;5084935;28;20276;-76
2021/10/28 01:45:19;;;;;;;0.80;0.80;;;15.30;99.90;;;;;;5084536;28;20220;-76
2021/10/28 01:47:46;;;;;;;1.27;1.00;;;15.40;99.90;;;;;;5078985;28;20533;-76
2021/10/28 01:50:13;;;;;;;0.90;0.90;;;15.30;99.90;;;;;;5083829;28;20200;-76
2021/10/28 01:52:40;;;;;;;0.83;0.83;;;15.40;99.90;;;;;;5079280;28;21559;-76
2021/10/28 01:55:11;;;;;;;0.90;0.90;;;15.40;99.90;;;;;;5077083;28;20258;-76
2021/10/28 01:57:39;;;;;;;0.70;0.70;;;15.30;99.90;;;;;;5076371;28;20525;-75
2021/10/28 02:00:13;;;;;;;0.97;0.97;;;15.40;99.90;;;;;;5082733;28;20204;-75
2021/10/28 02:02:42;;;;;;;0.80;0.80;;;15.40;99.90;;;;;;5075124;28;20204;-76
2021/10/28 02:05:10;;;;;;;0.73;0.73;;;15.40;99.90;;;;;;5076814;28;20757;-77
2021/10/28 02:07:38;;;;;;;1.00;1.00;;;15.40;99.90;;;;;;5087836;28;20226;-75
2021/10/28 02:10:06;;;;;;;1.60;1.27;;;15.40;99.90;;;;;;5087235;28;20212;-75
2021/10/28 02:12:36;;;;;;;1.30;1.20;;;15.40;99.90;;;;;;5084987;28;20287;-75
2021/10/28 02:15:06;;;;;;;1.13;1.03;;;15.40;99.90;;;;;;5086095;28;20630;-75
2021/10/28 02:17:33;;;;;;;1.07;1.07;;;15.40;99.90;;;;;;5086930;28;20587;-77
2021/10/28 02:20:00;;;;;;;1.10;1.00;;;15.40;99.90;;;;;;5087031;28;20542;-76
2021/10/28 02:22:27;;;;;;;1.23;1.13;;;15.40;99.90;;;;;;5086713;28;20215;-76
2021/10/28 02:24:54;;;;;;;1.50;1.40;;;15.40;99.90;;;;;;5084767;28;20247;-76
2021/10/28 02:27:21;;;;;;;1.20;1.20;;;15.40;99.90;;;;;;5085490;28;20973;-76
2021/10/28 02:29:49;;;;;;;1.07;1.07;;;15.30;99.90;;;;;;5084896;28;20196;-77
2021/10/28 02:32:16;;;;;;;0.90;0.90;;;15.30;99.90;;;;;;5085250;28;20212;-76
2021/10/28 02:34:43;;;;;;;0.87;0.87;;;15.30;99.90;;;;;;5084512;28;20215;-76
2021/10/28 02:37:11;;;;;;;1.47;1.17;;;15.30;99.90;;;;;;5082690;28;20196;-76
2021/10/28 02:39:39;;;;;;;1.03;0.97;;;15.40;99.90;;;;;;5079361;28;20231;-76
2021/10/28 02:42:07;;;;;;;1.70;1.10;;;15.40;99.90;;;;;;5110461;28;20663;-76
2021/10/28 02:44:34;;;;;;;1.00;1.00;;;15.40;99.90;;;;;;5085702;28;20787;-76
2021/10/28 02:47:03;;;;;;;1.00;1.00;;;15.40;99.90;;;;;;5081407;28;20196;-75
2021/10/28 02:49:30;;;;;;;1.93;1.83;;;15.40;99.90;;;;;;5078174;28;20201;-76
2021/10/28 02:51:56;;;;;;;1.00;1.00;;;15.40;99.90;;;;;;5083897;28;20285;-75
2021/10/28 02:54:24;;;;;;;1.03;1.03;;;15.40;99.90;;;;;;5089991;28;20215;-76
2021/10/28 02:56:52;;;;;;;1.00;1.00;;;15.30;99.90;;;;;;5083237;28;20686;-75
2021/10/28 02:59:19;;;;;;;1.00;1.00;;;15.30;99.90;;;;;;5085704;28;20833;-76
2021/10/28 03:01:48;;;;;;;1.17;1.03;;;15.30;99.90;;;;;;5083349;28;20279;-75
2021/10/28 03:04:18;;;;;;;0.93;0.93;;;15.40;99.90;;;;;;5086444;28;20308;-76
2021/10/28 03:06:45;;;;;;;1.10;1.10;;;15.40;99.90;;;;;;5082094;28;20295;-76
2021/10/28 03:09:15;;;;;;;1.10;1.10;;;15.30;99.90;;;;;;5090280;28;20310;-76
2021/10/28 03:11:43;;;;;;;0.93;0.93;;;15.30;99.90;;;;;;5091593;28;20684;-76
2021/10/28 03:14:14;;;;;;;1.00;1.00;;;15.30;99.90;;;;;;5089806;28;20201;-76
2021/10/28 03:16:50;;;;;;;1.20;1.10;;;15.30;99.90;;;;;;5088954;28;20208;-76
2021/10/28 03:19:38;;;;;;;1.20;1.10;;;15.30;99.90;;;;;;5080598;28;20212;-76
2021/10/28 03:27:34;;;;;;;1.27;1.10;;;15.30;99.90;;;;;;5079113;28;20630;-76
2021/10/28 03:30:01;;;;;;;2.10;1.20;;;15.30;99.90;;;;;;5089733;28;20503;-76
2021/10/28 03:32:29;;;;;;;1.63;0.93;;;15.30;99.90;;;;;;5077822;28;20193;-76
2021/10/28 03:34:57;;;;;;;1.20;1.20;;;15.30;99.90;;;;;;5080975;28;20236;-75
2021/10/28 03:37:27;;;;;;;3.03;1.20;;;15.30;99.90;;;;;;5085954;28;20199;-76
2021/10/28 03:59:44;;;;;;;1.40;1.30;;;15.30;99.90;;;;;;4881906;29;20742;-75
2021/10/28 04:18:43;;;;;;;1.27;1.17;;;15.10;99.90;;;;;;4788697;29;20228;-76
2021/10/28 04:30:19;;;;;;;2.03;1.83;;;14.90;99.90;;;;;;4743060;30;20571;-76
2021/10/28 04:32:46;;;;;;;1.83;1.73;;;14.90;99.90;;;;;;4738663;29;20224;-75
2021/10/28 04:35:13;;;;;;;3.00;1.90;;;14.90;99.90;;;;;;4787574;29;20223;-76
2021/10/28 04:37:44;;;;;;;1.70;1.60;;;14.90;99.90;;;;;;4839748;29;20327;-76
2021/10/28 04:40:14;;;;;;;2.03;1.77;;;14.90;99.90;;;;;;4813758;29;20304;-76
2021/10/28 04:42:41;;;;;;;1.90;1.70;;;14.90;99.90;;;;;;4854206;29;20733;-76
2021/10/28 04:45:09;;;;;;;1.33;1.23;;;14.90;99.90;;;;;;4866200;29;20776;-76
2021/10/28 04:47:36;;;;;;;3.00;1.47;;;14.90;99.90;;;;;;4901307;29;20217;-76
2021/10/28 04:50:06;;;;;;;2.17;1.97;;;14.90;99.90;;;;;;4950913;28;20515;-76
2021/10/28 04:52:33;;;;;;;3.20;1.90;;;14.90;99.90;;;;;;4967688;28;20217;-76
2021/10/28 04:55:00;;;;;;;2.20;2.00;;;14.90;99.90;;;;;;4972315;28;20228;-76
2021/10/28 04:57:29;;;;;;;1.60;1.50;;;14.90;99.90;;;;;;4970824;28;20216;-76
2021/10/28 04:59:56;;;;;;;2.20;1.60;;;14.90;99.90;;;;;;4984797;28;20678;-76
2021/10/28 05:02:23;;;;;;;1.87;1.77;;;14.90;99.90;;;;;;5003679;28;20261;-76
2021/10/28 05:04:50;;;;;;;2.00;1.70;;;14.90;99.90;;;;;;5062988;28;20328;-76
2021/10/28 05:07:17;;;;;;;1.60;1.50;;;14.90;99.90;;;;;;5083562;28;20697;-75
2021/10/28 05:09:44;;;;;;;1.70;1.60;;;14.90;99.90;;;;;;5087104;28;20282;-76
2021/10/28 05:12:12;;;;;;;1.70;1.37;;;14.90;99.90;;;;;;5086768;28;20292;-76
2021/10/28 05:14:40;;;;;;;1.90;1.80;;;14.90;99.90;;;;;;5087965;28;20228;-76
2021/10/28 05:17:07;;;;;;;1.87;1.70;;;14.90;99.90;;;;;;5087085;28;20203;-76
2021/10/28 05:19:38;;;;;;;1.60;1.50;;;14.90;99.90;;;;;;5078601;28;20729;-76
2021/10/28 05:22:05;;;;;;;2.10;2.00;;;14.90;99.90;;;;;;5084074;28;20214;-76
2021/10/28 05:24:33;;;;;;;2.43;2.20;;;14.80;99.90;;;;;;5086316;28;20212;-76
2021/10/28 05:27:00;;;;;;;1.80;1.67;;;14.90;99.90;;;;;;5082514;28;20598;-75
2021/10/28 05:29:27;;;;;;;2.00;1.77;;;14.90;99.90;;;;;;5086878;28;20200;-75
2021/10/28 05:31:56;;;;;;;2.80;1.77;;;14.90;99.90;;;;;;5087373;28;20231;-75
2021/10/28 05:34:23;;;;;;;1.70;1.60;;;14.90;99.90;;;;;;5084511;28;20678;-76
2021/10/28 05:36:50;;;;;;;3.30;1.90;;;14.90;99.90;;;;;;5087279;28;20216;-76
2021/10/28 05:39:17;;;;;;;1.73;1.63;;;14.90;99.90;;;;;;5087182;28;20204;-75
2021/10/28 05:41:44;;;;;;;1.40;1.30;;;14.90;99.90;;;;;;5078972;28;20280;-75
2021/10/28 05:44:12;;;;;;;1.90;1.80;;;14.90;99.90;;;;;;5087137;28;20208;-77
2021/10/28 05:46:39;;;;;;;2.47;2.20;;;14.90;99.90;;;;;;5083041;28;20646;-76
2021/10/28 05:49:07;;;;;;;2.20;2.00;;;14.90;99.90;;;;;;5081839;28;20536;-76
2021/10/28 05:51:36;;;;;;;2.17;1.97;;;14.90;99.90;;;;;;5078772;28;20728;-75
2021/10/28 05:54:03;;;;;;;2.80;2.50;;;14.90;99.90;;;;;;5086344;28;20208;-75
2021/10/28 05:56:30;;;;;;;2.23;2.13;;;14.90;99.90;;;;;;5076465;28;20600;-75
2021/10/28 05:58:57;;;;;;;2.00;1.90;;;14.90;99.90;;;;;;5085511;28;20303;-76
2021/10/28 06:01:24;;;;;;;2.90;2.30;;;14.90;99.90;;;;;;5076304;28;20208;-76
2021/10/28 06:03:51;;;;;;;2.17;1.97;;;14.90;99.90;;;;;;5079569;28;20353;-76
2021/10/28 06:06:19;;;;;;;2.00;1.80;;;14.90;99.90;;;;;;5075946;28;20688;-75
2021/10/28 06:08:46;;;;;;;2.33;1.80;;;14.90;99.90;;;;;;5086799;28;20196;-76
2021/10/28 06:11:15;;;;;;;1.63;1.53;;;14.90;99.90;;;;;;5087335;28;20203;-76
2021/10/28 06:13:44;;;;;;;1.63;1.53;;;14.90;99.90;;;;;;5084898;28;20207;-75
2021/10/28 06:16:12;;;;;;;1.93;1.70;;;15.00;99.90;;;;;;5088169;28;20188;-75
2021/10/28 06:18:41;;;;;;;1.63;1.53;;;15.00;99.90;;;;;;5084823;28;20291;-75
2021/10/28 06:21:09;;;;;;;1.93;1.77;;;15.00;99.90;;;;;;5078470;28;20200;-76
2021/10/28 06:23:38;;;;;;;2.30;1.70;;;15.00;99.90;;;;;;5084174;28;20189;-76
2021/10/28 06:26:06;;;;;;;1.63;1.53;;;15.00;99.90;;;;;;5089837;28;20361;-76
2021/10/28 06:28:33;;;;;;;1.60;1.50;;;15.00;99.90;;;;;;5090059;28;20228;-76
2021/10/28 06:31:00;;;;;;;1.70;1.60;;;15.00;99.90;;;;;;5087884;28;20202;-76
2021/10/28 06:33:30;;;;;;;1.70;1.60;;;15.00;99.90;;;;;;5084658;28;20275;-75
2021/10/28 06:35:58;;;;;;;1.93;1.40;;;15.00;99.90;;;;;;5091330;28;20223;-75
2021/10/28 06:38:25;;;;;;;2.20;2.00;;;15.00;99.90;;;;;;5090807;28;20299;-76
2021/10/28 06:40:54;;;;;;;2.37;2.17;;;15.00;99.90;;;;;;5087537;28;20686;-76
2021/10/28 06:43:21;;;;;;;2.10;1.90;;;15.00;99.90;;;;;;5080202;28;20197;-75
2021/10/28 06:45:48;;;;;;;2.13;1.93;;;15.00;99.90;;;;;;5090280;28;20687;-75
2021/10/28 06:48:15;;;;;;;2.67;1.70;;;15.00;99.90;;;;;;5090475;28;20639;-75
2021/10/28 06:50:47;;;;;;;3.67;2.20;;;15.00;99.90;;;;;;5086278;28;20211;-75
2021/10/28 06:53:22;;;;;;;2.10;2.00;;;15.00;99.90;;;;;;5085190;28;20205;-76
2021/10/28 06:55:56;;;;;;;2.50;2.30;;;15.00;99.90;;;;;;5082355;28;20216;-75
2021/10/28 07:03:53;;;;;;;2.73;2.53;;;15.00;99.90;;;;;;5082016;28;20686;-76
2021/10/28 07:06:21;;;;;;;2.40;2.30;;;15.00;99.90;;;;;;5080442;28;20243;-76
2021/10/28 07:08:52;;;;;;;2.73;2.47;;;15.00;99.90;;;;;;5088721;28;20299;-76
2021/10/28 07:11:24;;;;;;;3.13;2.23;;;15.00;99.90;;;;;;5089406;28;20235;-76
2021/10/28 07:13:54;;;;;;;2.50;2.00;;;15.00;99.90;;;;;;5087253;28;20300;-74
2021/10/28 07:16:35;;;;;;;3.60;2.63;;;15.00;99.90;;;;;;5089993;28;20216;-76
2021/10/28 07:19:14;;;;;;;5.87;2.73;;;15.10;99.90;;;;;;5088272;28;20204;-76
2021/10/28 07:27:51;;;;;;;4.73;2.73;;;15.00;99.90;;;;;;5008269;28;20241;-76
2021/10/28 07:30:32;;;;;;;2.70;2.50;;;15.00;99.90;;;;;;5013355;28;20622;-76
2021/10/28 07:33:13;;;;;;;2.87;2.53;;;15.10;99.90;;;;;;4999035;28;20646;-76
2021/10/28 07:57:57;;;;;;;2.00;1.90;;;15.40;99.90;;;;;;4876254;29;20278;-76
2021/10/28 08:14:53;;;;;;;1.70;1.60;;;15.70;99.90;;;;;;4960881;28;20236;-75
2021/10/28 08:17:38;;;;;;;3.80;1.80;;;15.80;99.90;;;;;;4970965;28;20208;-75
2021/10/28 08:20:14;;;;;;;2.37;1.70;;;15.90;99.90;;;;;;4987726;28;20218;-76
2021/10/28 08:22:42;;;;;;;1.70;1.60;;;16.00;99.90;;;;;;4962523;28;20761;-76
2021/10/28 08:30:39;;;;;;;2.03;1.90;;;16.30;99.90;;;;;;4969373;28;20604;-76
2021/10/28 08:33:06;;;;;;;1.60;1.50;;;16.30;99.90;;;;;;4972622;28;20621;-76
2021/10/28 08:35:36;;;;;;;2.20;1.63;;;16.40;99.90;;;;;;5016758;28;20206;-75
2021/10/28 08:38:03;;;;;;;1.63;1.50;;;16.40;99.90;;;;;;5007264;28;20207;-75
2021/10/28 08:40:30;;;;;;;1.60;1.50;;;16.50;99.90;;;;;;5009945;28;20659;-75
2021/10/28 08:42:58;;;;;;;1.60;1.50;;;16.50;99.90;;;;;;5010073;28;20225;-75
2021/10/28 08:45:32;;;;;;;1.70;1.60;;;16.60;99.90;;;;;;5064021;28;20319;-76
2021/10/28 08:48:01;;;;;;;1.67;1.60;;;16.70;99.90;;;;;;5080484;28;20704;-76
2021/10/28 08:50:32;;;;;;;2.17;1.90;;;16.70;99.90;;;;;;5087035;28;20676;-76
2021/10/28 08:53:21;;;;;;;2.00;1.90;;;16.80;99.90;;;;;;5088741;28;20216;-75
2021/10/28 08:55:52;;;;;;;1.80;1.70;;;16.80;99.90;;;;;;5084688;28;20267;-76
2021/10/28 08:58:38;;;;;;;2.00;1.90;;;16.90;99.90;;;;;;5083282;28;20197;-75
2021/10/28 09:23:59;;;;;;;2.70;2.30;;;17.30;99.90;;;;;;5087524;28;20207;-74
2021/10/28 09:26:43;;;;;;;2.67;2.47;;;17.40;99.90;;;;;;5087695;28;20228;-75
2021/10/28 09:29:18;;;;;;;2.30;2.10;;;17.50;99.90;;;;;;5076404;28;20217;-76
2021/10/28 09:31:58;;;;;;;3.10;2.57;;;17.60;99.90;;;;;;5086869;28;20272;-75
2021/10/28 09:46:20;;;;;;;4.97;2.40;;;17.80;99.90;;;;;;5080781;28;20264;-75
2021/10/28 09:51:39;;;;;;;2.13;1.98;;;17.90;99.90;;;;;;5086924;28;20254;-75
2021/10/28 09:54:12;;;;;;;2.25;1.90;;;17.90;99.90;;;;;;5086889;28;20227;-75
2021/10/28 09:59:29;;;;;;;2.63;1.80;;;18.00;99.90;;;;;;5086060;28;20223;-75
2021/10/28 10:02:10;;;;;;;3.55;2.40;;;18.20;99.90;;;;;;5081274;28;20200;-75
2021/10/28 10:04:40;;;;;;;2.08;1.98;;;18.30;99.90;;;;;;5075442;28;20233;-76
2021/10/28 10:07:07;;;;;;;1.85;1.75;;;18.50;99.90;;;;;;5087213;28;20349;-76
2021/10/28 10:09:38;;;;;;;2.28;2.00;;;18.60;99.90;;;;;;5086540;28;20212;-75
2021/10/28 10:12:06;;;;;;;2.42;2.22;;;18.60;99.90;;;;;;5085942;28;20209;-75
2021/10/28 10:14:36;;;;;;;3.28;3.00;;;18.70;99.90;;;;;;5085885;28;20660;-76
2021/10/28 10:17:04;;;;;;;3.65;3.33;;;18.70;99.90;;;;;;5083556;28;20227;-76
2021/10/28 10:19:37;;;;;;;3.70;3.13;;;18.60;99.90;;;;;;5086640;28;20192;-76
2021/10/28 10:22:17;;;;;;;3.10;2.80;;;18.60;99.90;;;;;;5084301;28;20228;-75
2021/10/28 10:24:51;;;;;;;3.13;2.92;;;18.60;99.90;;;;;;5086292;28;20269;-76
2021/10/28 12:19:47;;;;;;;2.72;2.50;;;19.60;95.30;;;;;;5006848;28;20730;-75
2021/10/28 12:45:57;;;;;;;2.42;2.33;;;19.00;95.10;;;;;;4999056;28;20237;-76
2021/10/28 12:48:54;;;;;;;2.60;2.20;;;18.90;95.10;;;;;;5018851;28;20285;-76
2021/10/28 12:54:46;;;;;;;2.05;1.70;;;18.80;95.30;;;;;;5017708;28;20229;-75
2021/10/28 13:55:57;;;;;;;1.90;1.80;;;16.90;97.30;;;;;;4909133;29;20221;-75
2021/10/28 14:15:08;;;;;;;2.30;2.10;;;16.50;98.30;;;;;;4980251;28;20199;-75
2021/10/28 14:21:01;;;;;;;2.50;2.10;;;16.30;99.00;;;;;;4989447;28;20200;-75
2021/10/28 14:37:38;;;;;;;1.77;1.67;;;16.00;99.70;;;;;;5005999;28;20216;-74
2021/10/28 15:02:33;;;;;;;2.03;1.80;;;15.40;99.90;;;;;;4949999;28;20212;-76
2021/10/28 15:29:54;;;;;;;2.70;2.07;;;14.80;99.90;;;;;;5030837;28;20289;-75
2021/10/28 15:35:29;;;;;;;2.73;2.10;;;14.70;99.90;;;;;;5041969;28;20210;-75
2021/10/28 15:38:07;;;;;;;2.93;2.67;;;14.70;99.90;;;;;;5031251;28;20208;-76
2021/10/28 15:40:45;;;;;;;4.90;3.90;;;14.60;99.90;;;;;;5030903;28;20216;-76
2021/10/28 15:43:38;;;;;;;5.40;3.70;;;14.50;99.90;;;;;;5038485;28;20313;-76
2021/10/28 15:57:21;;;;;;;8.43;4.40;;;14.10;99.90;;;;;;4997889;28;20199;-76
2021/10/28 16:21:54;;;;;;;9.57;5.63;;;13.60;99.90;;;;;;5007367;28;20217;-76
2021/10/28 16:24:24;;;;;;;8.07;5.43;;;13.60;99.90;;;;;;4997354;28;20236;-76
2021/10/28 16:26:52;;;;;;;9.53;6.00;;;13.50;99.90;;;;;;4981280;28;20232;-76
2021/10/28 16:29:20;;;;;;;11.47;6.00;;;13.50;99.90;;;;;;5070742;28;20301;-76
2021/10/28 16:31:48;;;;;;;7.20;4.90;;;13.50;99.90;;;;;;5081372;28;20283;-76
2021/10/28 16:34:16;;;;;;;7.63;5.13;;;13.40;99.90;;;;;;5088417;28;20211;-76
2021/10/28 16:36:45;;;;;;;8.87;5.70;;;13.40;99.90;;;;;;5088645;28;20200;-76
2021/10/28 16:39:14;;;;;;;9.20;6.20;;;13.30;99.90;;;;;;5089081;28;20214;-76
2021/10/28 16:41:45;;;;;;;10.47;6.10;;;13.30;99.90;;;;;;5080020;28;20223;-76
2021/10/28 16:44:13;;;;;;;11.87;6.90;;;13.30;99.90;;;;;;5087857;28;20203;-76
2021/10/28 16:46:41;;;;;;;8.50;5.73;;;13.20;99.90;;;;;;5087693;28;20248;-76
2021/10/28 16:49:10;;;;;;;8.07;5.43;;;13.20;99.90;;;;;;5089212;28;20287;-76
2021/10/28 16:51:38;;;;;;;7.50;5.20;;;13.20;99.90;;;;;;5083499;28;20285;-75
2021/10/28 16:54:05;;;;;;;10.20;6.50;;;13.10;99.90;;;;;;5086584;28;20206;-75
2021/10/28 16:56:32;;;;;;;8.63;5.90;;;13.10;99.90;;;;;;5075398;28;20207;-75
2021/10/28 16:59:01;;;;;;;10.40;6.37;;;13.00;99.90;;;;;;5086389;28;20258;-75
2021/10/28 17:01:28;;;;;;;11.57;6.83;;;13.00;99.90;;;;;;5110087;27;20233;-76
2021/10/28 17:03:56;;;;;;;12.37;6.93;;;12.90;99.90;;;;;;5078517;28;20681;-75
2021/10/28 17:06:23;;;;;;;8.90;6.10;;;12.90;99.90;;;;;;5078369;28;20276;-76
2021/10/28 17:08:55;;;;;;;10.60;6.90;;;12.90;99.90;;;;;;5085975;28;20640;-76
2021/10/28 17:11:22;;;;;;;8.83;5.37;;;12.80;99.90;;;;;;5088838;28;20537;-76
2021/10/28 17:13:49;;;;;;;11.93;7.03;;;12.80;99.90;;;;;;5086249;28;20189;-76
2021/10/28 17:16:17;;;;;;;8.07;6.20;;;12.70;99.90;;;;;;5086076;28;20296;-76
2021/10/28 17:18:44;;;;;;;10.50;6.87;;;12.70;99.90;;;;;;5084387;28;20201;-75
2021/10/28 17:21:11;;;;;;;11.27;6.33;;;12.60;99.90;;;;;;5088145;28;20617;-76
2021/10/28 17:23:41;;;;;;;9.23;6.07;;;12.60;99.90;;;;;;5084215;28;20224;-76
2021/10/28 17:26:10;;;;;;;12.97;6.90;;;12.60;99.90;;;;;;5085882;28;20218;-76
2021/10/28 17:28:37;;;;;;;15.20;7.73;;;12.50;99.90;;;;;;5087271;28;20273;-76
2021/10/28 17:31:08;;;;;;;12.63;7.47;;;12.50;99.90;;;;;;5087311;28;20208;-76
2021/10/28 17:33:36;;;;;;;15.87;9.30;;;12.40;99.90;;;;;;5080840;28;20206;-76
2021/10/28 17:36:05;;;;;;;12.57;7.67;;;12.40;99.90;;;;;;5084514;28;20279;-76
2021/10/28 17:38:32;;;;;;;11.50;7.03;;;12.40;99.90;;;;;;5087558;28;20381;-76
2021/10/28 17:41:00;;;;;;;20.03;10.43;;;12.30;99.90;;;;;;5087845;28;20210;-75
2021/10/28 17:43:29;;;;;;;16.43;9.43;;;12.30;99.90;;;;;;5086775;28;20743;-76
2021/10/28 17:45:57;;;;;;;20.40;10.50;;;12.30;99.90;;;;;;5079960;28;20208;-76
2021/10/28 17:48:26;;;;;;;15.80;8.60;;;12.30;99.90;;;;;;5085816;28;20237;-76
2021/10/28 17:50:55;;;;;;;19.83;10.40;;;12.20;99.90;;;;;;5081721;28;20196;-77
2021/10/28 17:53:22;;;;;;;17.60;9.17;;;12.20;99.90;;;;;;5083257;28;20200;-76
2021/10/28 17:55:49;;;;;;;16.87;9.73;;;12.10;99.90;;;;;;5078769;28;20269;-76
2021/10/28 17:58:16;;;;;;;15.30;8.40;;;12.10;99.90;;;;;;5076247;28;20208;-75
2021/10/28 18:00:43;;;;;;;15.87;9.23;;;12.10;99.90;;;;;;5079377;28;20370;-75
2021/10/28 18:03:11;;;;;;;19.73;9.60;;;12.10;99.90;;;;;;5082223;28;20232;-76
2021/10/28 18:05:39;;;;;;;13.97;8.37;;;12.10;99.90;;;;;;5086019;28;20211;-76
2021/10/28 18:08:08;;;;;;;14.37;9.10;;;12.10;99.90;;;;;;5087268;28;20224;-76
2021/10/28 18:10:35;;;;;;;14.70;8.30;;;12.00;99.90;;;;;;5086015;28;20683;-76
2021/10/28 18:13:03;;;;;;;18.40;9.97;;;12.00;99.90;;;;;;5087298;28;20226;-76
2021/10/28 18:15:31;;;;;;;24.60;13.30;;;12.00;99.90;;;;;;5084395;28;20193;-76
2021/10/28 18:17:58;;;;;;;21.83;12.33;;;11.90;99.90;;;;;;5087790;28;20190;-76
2021/10/28 18:20:25;;;;;;;24.20;13.30;;;11.80;99.90;;;;;;5086648;28;20195;-75
2021/10/28 18:22:53;;;;;;;26.93;13.67;;;11.80;99.90;;;;;;5091870;28;21032;-76
2021/10/28 18:25:23;;;;;;;29.77;14.73;;;11.80;99.90;;;;;;5070780;28;20204;-76
2021/10/28 18:27:55;;;;;;;26.17;14.97;;;11.70;99.90;;;;;;5091558;28;20220;-76
2021/10/28 18:30:23;;;;;;;25.80;14.30;;;11.60;99.90;;;;;;5086103;28;20212;-76
2021/10/28 18:32:50;;;;;;;24.87;14.00;;;11.60;99.90;;;;;;5089085;28;20203;-76
2021/10/28 18:35:17;;;;;;;25.53;14.57;;;11.50;99.90;;;;;;5086915;28;20657;-76
2021/10/28 18:37:46;;;;;;;25.17;13.70;;;11.50;99.90;;;;;;5090107;28;20640;-76
2021/10/28 18:40:14;;;;;;;21.67;11.37;;;11.50;99.90;;;;;;5085590;28;20674;-76
2021/10/28 18:42:44;;;;;;;19.00;10.37;;;11.50;99.90;;;;;;5087352;28;20305;-76
2021/10/28 18:45:11;;;;;;;20.87;11.03;;;11.50;99.90;;;;;;5084628;28;20287;-76
2021/10/28 18:47:38;;;;;;;20.33;11.60;;;11.50;99.90;;;;;;5088620;28;20218;-76
2021/10/28 18:50:06;;;;;;;18.50;11.07;;;11.50;99.90;;;;;;5085587;28;20194;-76
2021/10/28 18:52:34;;;;;;;20.90;11.87;;;11.50;99.90;;;;;;5086320;28;20556;-76
2021/10/28 18:55:02;;;;;;;23.40;12.67;;;11.40;99.90;;;;;;5083635;28;20201;-77
2021/10/28 18:57:29;;;;;;;19.27;11.20;;;11.40;99.90;;;;;;5084720;28;20209;-76
2021/10/28 18:59:58;;;;;;;17.10;10.53;;;11.40;99.90;;;;;;5081689;28;20203;-76
2021/10/28 19:02:28;;;;;;;19.63;10.70;;;11.30;99.90;;;;;;5085798;28;20197;-76
2021/10/28 19:04:55;;;;;;;18.93;11.00;;;11.30;99.90;;;;;;5077464;28;20237;-76
2021/10/28 19:07:22;;;;;;;22.17;13.40;;;11.30;99.90;;;;;;5107458;28;20247;-77
2021/10/28 19:09:49;;;;;;;23.67;13.37;;;11.20;99.90;;;;;;5086380;28;20227;-77
2021/10/28 19:12:16;;;;;;;20.23;11.40;;;11.20;99.90;;;;;;5090267;28;20659;-76
2021/10/28 19:14:44;;;;;;;18.53;11.07;;;11.10;99.90;;;;;;5090200;28;20271;-75
2021/10/28 19:17:13;;;;;;;20.27;11.83;;;11.10;99.90;;;;;;5089448;28;20695;-75
2021/10/28 19:19:40;;;;;;;21.20;11.50;;;11.10;99.90;;;;;;5090620;28;20561;-76
2021/10/28 19:22:08;;;;;;;23.80;13.30;;;11.10;99.90;;;;;;5090643;28;20618;-75
2021/10/28 19:24:36;;;;;;;28.03;15.33;;;11.10;99.90;;;;;;5089997;28;20212;-76
2021/10/28 19:27:04;;;;;;;25.80;13.63;;;11.00;99.90;;;;;;5088037;28;20231;-76
2021/10/28 19:29:32;;;;;;;24.63;12.87;;;11.00;99.90;;;;;;5087164;28;20707;-77
2021/10/28 19:32:05;;;;;;;21.03;12.43;;;11.00;99.90;;;;;;5084976;28;20209;-76
2021/10/28 19:34:37;;;;;;;20.73;12.00;;;11.00;99.90;;;;;;5087281;28;20271;-75
2021/10/28 19:37:10;;;;;;;25.10;13.70;;;11.00;99.90;;;;;;5083760;28;20227;-76
2021/10/28 19:45:28;;;;;;;18.00;11.20;;;10.90;99.90;;;;;;5078764;28;20202;-76
2021/10/28 19:47:55;;;;;;;18.77;11.50;;;10.80;99.90;;;;;;5081502;28;20257;-75
2021/10/28 19:50:24;;;;;;;16.50;10.93;;;10.90;99.90;;;;;;5088061;28;20201;-76
2021/10/28 19:52:51;;;;;;;23.30;13.03;;;10.80;99.90;;;;;;5080759;28;20200;-76
2021/10/28 19:55:19;;;;;;;25.07;13.50;;;10.80;99.90;;;;;;5081298;28;20235;-76
2021/10/28 19:57:50;;;;;;;22.07;13.40;;;10.80;99.90;;;;;;5076790;28;20195;-76
2021/10/28 20:00:22;;;;;;;19.63;12.07;;;10.70;99.90;;;;;;5086889;28;20301;-76
2021/10/28 20:03:27;;;;;;;19.23;11.40;;;10.70;99.90;;;;;;5077347;28;20263;-76
2021/10/28 20:06:09;;;;;;;19.83;12.20;;;10.70;99.90;;;;;;5074037;28;20627;-76
2021/10/28 20:14:22;;;;;;;15.00;9.37;;;10.60;99.90;;;;;;5087685;28;20200;-76
2021/10/28 20:22:19;;;;;;;15.30;9.60;;;10.60;99.90;;;;;;5087527;28;20288;-77
2021/10/28 20:24:47;;;;;;;12.70;8.43;;;10.60;99.90;;;;;;5088572;28;20226;-76
2021/10/28 20:27:14;;;;;;;19.00;10.70;;;10.60;99.90;;;;;;5087058;28;20290;-76
2021/10/28 20:29:41;;;;;;;16.90;11.07;;;10.60;99.90;;;;;;5087042;28;20217;-76
2021/10/28 20:32:08;;;;;;;17.67;11.03;;;10.50;99.90;;;;;;5086116;28;20212;-76
2021/10/28 20:34:37;;;;;;;25.23;14.30;;;10.50;99.90;;;;;;5088216;28;20877;-76
2021/10/28 20:37:06;;;;;;;28.80;16.07;;;10.50;99.90;;;;;;5082859;28;20735;-76
2021/10/28 20:39:36;;;;;;;25.47;15.27;;;10.50;99.90;;;;;;5086117;28;20207;-76
2021/10/28 20:42:04;;;;;;;22.43;13.87;;;10.40;99.90;;;;;;5082975;28;20299;-77
2021/10/28 20:44:32;;;;;;;25.30;15.03;;;10.40;99.90;;;;;;5081269;28;20550;-76
2021/10/28 20:46:59;;;;;;;22.67;13.67;;;10.30;99.90;;;;;;5082031;28;20299;-76
2021/10/28 20:49:26;;;;;;;26.77;15.03;;;10.30;99.90;;;;;;5081092;28;20610;-76
2021/10/28 20:51:53;;;;;;;22.83;14.03;;;10.30;99.90;;;;;;5085898;28;20302;-76
2021/10/28 20:54:22;;;;;;;22.53;13.20;;;10.30;99.90;;;;;;5080430;28;20684;-76
2021/10/28 20:56:51;;;;;;;20.67;12.53;;;10.30;99.90;;;;;;5079815;28;20347;-76
2021/10/28 20:59:19;;;;;;;21.03;12.73;;;10.30;99.90;;;;;;5087145;28;20197;-76
2021/10/28 21:01:47;;;;;;;21.60;14.47;;;10.30;99.90;;;;;;5087852;28;20654;-76